createdAt,value
2018-02-15T00:00:06.735Z,57.7
2018-02-15T00:00:58.647Z,57.32
2018-02-15T00:01:54.202Z,57.79
2018-02-15T00:02:48.430Z,57.6
2018-02-15T00:04:39.620Z,57.32
2018-02-15T00:05:20.213Z,57.13
2018-02-15T00:06:00.622Z,57.42
2018-02-15T00:06:41.019Z,57.6
2018-02-15T00:07:21.429Z,57.6
2018-02-15T00:08:01.876Z,57.6
2018-02-15T00:08:42.201Z,57.6
2018-02-15T00:09:22.636Z,57.23
2018-02-15T00:10:02.992Z,57.13
2018-02-15T00:10:43.388Z,57.23
2018-02-15T00:11:23.772Z,57.23
2018-02-15T00:12:04.180Z,57.13
2018-02-15T00:12:44.795Z,57.04
2018-02-15T00:13:25.175Z,57.32
2018-02-15T00:14:05.566Z,57.13
2018-02-15T00:14:46.933Z,57.23
2018-02-15T00:15:27.332Z,57.04
2018-02-15T00:16:07.753Z,56.66
2018-02-15T00:18:27.487Z,56.56
2018-02-15T00:19:07.791Z,56.66
2018-02-15T00:19:48.235Z,56.66
2018-02-15T00:20:28.612Z,56.66
2018-02-15T00:21:08.982Z,56.09
2018-02-15T00:21:49.393Z,56.75
2018-02-15T00:22:29.781Z,56.46
2018-02-15T00:23:10.188Z,56.94
2018-02-15T00:23:50.563Z,57.13
2018-02-15T00:24:30.956Z,57.13
2018-02-15T00:25:11.342Z,57.13
2018-02-15T00:25:51.713Z,56.94
2018-02-15T00:26:32.057Z,56.94
2018-02-15T00:27:12.461Z,56.75
2018-02-15T00:27:52.994Z,57.04
2018-02-15T00:28:33.293Z,56.85
2018-02-15T00:29:13.641Z,57.13
2018-02-15T00:29:54.037Z,57.13
2018-02-15T00:30:34.549Z,56.94
2018-02-15T00:31:15.038Z,57.23
2018-02-15T00:31:55.386Z,57.89
2018-02-15T00:32:35.811Z,57.32
2018-02-15T00:33:16.328Z,57.13
2018-02-15T00:33:56.712Z,57.32
2018-02-15T00:34:37.124Z,57.42
2018-02-15T00:35:17.558Z,57.42
2018-02-15T00:35:57.922Z,57.13
2018-02-15T00:36:38.324Z,56.94
2018-02-15T00:37:18.712Z,57.32
2018-02-15T00:37:59.079Z,57.42
2018-02-15T00:38:39.472Z,57.13
2018-02-15T00:39:19.856Z,56.94
2018-02-15T00:40:00.268Z,56.66
2018-02-15T00:40:40.729Z,56.56
2018-02-15T00:41:21.147Z,56.87
2018-02-15T00:42:01.539Z,56.59
2018-02-15T00:42:41.929Z,56.59
2018-02-15T00:43:22.332Z,55.93
2018-02-15T00:44:02.726Z,56.12
2018-02-15T00:44:43.101Z,55.93
2018-02-15T00:45:23.594Z,55.93
2018-02-15T00:46:04.010Z,55.99
2018-02-15T00:46:44.391Z,55.99
2018-02-15T00:47:24.778Z,55.93
2018-02-15T00:48:05.168Z,56.37
2018-02-15T00:48:45.578Z,56.27
2018-02-15T00:49:25.939Z,56.75
2018-02-15T00:50:06.367Z,56.75
2018-02-15T00:50:46.770Z,55.9
2018-02-15T00:51:27.113Z,56.56
2018-02-15T00:52:07.526Z,56.46
2018-02-15T00:52:47.915Z,56.46
2018-02-15T00:53:28.445Z,56.75
2018-02-15T00:54:08.920Z,57.13
2018-02-15T00:54:49.224Z,56.56
2018-02-15T00:55:29.628Z,56.37
2018-02-15T00:56:09.994Z,56.09
2018-02-15T00:56:50.588Z,56.75
2018-02-15T00:57:31.010Z,56.56
2018-02-15T00:58:11.456Z,56.66
2018-02-15T00:58:51.896Z,56.37
2018-02-15T00:59:32.426Z,56.37
2018-02-15T01:00:12.860Z,56.37
2018-02-15T01:00:53.226Z,56.56
2018-02-15T01:01:33.609Z,57.04
2018-02-15T01:02:14.002Z,56.27
2018-02-15T01:02:54.685Z,56.56
2018-02-15T01:03:35.125Z,56.46
2018-02-15T01:04:15.576Z,56.37
2018-02-15T01:04:56.030Z,56.56
2018-02-15T01:05:36.403Z,56.75
2018-02-15T01:06:16.824Z,56.46
2018-02-15T01:06:57.217Z,56.37
2018-02-15T01:07:37.631Z,56.66
2018-02-15T01:08:18.028Z,56.27
2018-02-15T01:08:58.385Z,56.46
2018-02-15T01:09:38.839Z,56.46
2018-02-15T01:10:19.174Z,56.56
2018-02-15T01:10:59.604Z,56.75
2018-02-15T01:16:12.425Z,56.46
2018-02-15T01:17:05.414Z,56.94
2018-02-15T01:17:57.861Z,56.75
2018-02-15T01:18:51.856Z,56.94
2018-02-15T01:19:43.849Z,57.13
2018-02-15T01:20:36.550Z,57.32
2018-02-15T01:21:29.327Z,57.32
2018-02-15T01:22:12.932Z,56.94
2018-02-15T01:22:54.086Z,56.94
2018-02-15T01:23:34.686Z,56.85
2018-02-15T01:24:18.275Z,56.75
2018-02-15T01:24:59.091Z,56.46
2018-02-15T01:25:40.182Z,56.37
2018-02-15T01:26:22.226Z,56.94
2018-02-15T01:27:05.073Z,56.94
2018-02-15T01:27:45.487Z,57.32
2018-02-15T01:28:31.631Z,56.94
2018-02-15T01:29:15.541Z,56.85
2018-02-15T01:29:56.480Z,57.04
2018-02-15T01:30:37.828Z,56.94
2018-02-15T01:31:20.156Z,57.13
2018-02-15T01:32:01.129Z,57.13
2018-02-15T01:32:41.508Z,57.13
2018-02-15T01:33:26.895Z,57.42
2018-02-15T01:34:08.009Z,56.85
2018-02-15T01:34:47.869Z,57.13
2018-02-15T01:35:29.821Z,57.13
2018-02-15T01:36:11.085Z,56.94
2018-02-15T01:36:51.405Z,57.04
2018-02-15T01:37:33.469Z,57.13
2018-02-15T01:38:13.907Z,57.32
2018-02-15T01:38:57.450Z,57.32
2018-02-15T01:39:38.238Z,57.79
2018-02-15T01:40:19.408Z,57.7
2018-02-15T01:41:01.808Z,57.51
2018-02-15T01:41:41.904Z,57.6
2018-02-15T01:42:23.866Z,58.17
2018-02-15T01:43:11.802Z,57.79
2018-02-15T01:45:17.983Z,57.32
2018-02-15T01:45:58.425Z,57.04
2018-02-15T01:46:38.846Z,57.13
2018-02-15T01:47:19.428Z,57.13
2018-02-15T01:48:01.988Z,57.79
2018-02-15T01:48:42.308Z,57.7
2018-02-15T01:49:22.839Z,57.7
2018-02-15T01:50:03.241Z,57.51
2018-02-15T01:50:43.655Z,57.7
2018-02-15T01:51:24.041Z,57.23
2018-02-15T01:52:04.456Z,57.23
2018-02-15T01:52:45.128Z,57.32
2018-02-15T01:53:25.383Z,57.6
2018-02-15T01:54:06.028Z,57.7
2018-02-15T01:54:48.930Z,57.51
2018-02-15T01:55:29.336Z,57.6
2018-02-15T01:56:10.385Z,57.13
2018-02-15T01:56:51.506Z,57.13
2018-02-15T01:57:32.867Z,57.23
2018-02-15T01:58:12.969Z,57.42
2018-02-15T01:58:54.549Z,57.04
2018-02-15T01:59:34.738Z,57.13
2018-02-15T02:00:15.140Z,57.13
2018-02-15T02:00:55.526Z,57.13
2018-02-15T02:01:35.899Z,57.23
2018-02-15T02:02:16.889Z,57.51
2018-02-15T02:02:57.320Z,57.51
2018-02-15T02:03:37.807Z,57.6
2018-02-15T02:04:18.239Z,57.32
2018-02-15T02:04:58.635Z,57.04
2018-02-15T02:05:39.010Z,57.32
2018-02-15T02:06:19.642Z,57.32
2018-02-15T02:06:59.983Z,57.23
2018-02-15T02:07:40.406Z,57.32
2018-02-15T02:08:20.838Z,57.04
2018-02-15T02:10:27.442Z,57.13
2018-02-15T02:11:12.194Z,57.23
2018-02-15T02:11:53.248Z,57.6
2018-02-15T02:12:33.887Z,57.42
2018-02-15T02:13:14.436Z,57.7
2018-02-15T02:13:54.845Z,57.32
2018-02-15T02:14:35.338Z,57.23
2018-02-15T02:15:15.677Z,57.32
2018-02-15T02:15:56.167Z,57.13
2018-02-15T02:16:37.411Z,57.51
2018-02-15T02:17:19.146Z,57.7
2018-02-15T02:18:00.253Z,58.17
2018-02-15T02:18:43.125Z,57.98
2018-02-15T02:19:23.941Z,58.17
2018-02-15T02:20:04.188Z,57.23
2018-02-15T02:20:44.836Z,57.23
2018-02-15T02:21:25.309Z,57.23
2018-02-15T02:22:07.451Z,57.13
2018-02-15T02:22:47.823Z,57.13
2018-02-15T02:23:28.940Z,57.23
2018-02-15T02:24:09.210Z,57.13
2018-02-15T02:24:49.719Z,57.23
2018-02-15T02:25:30.637Z,57.79
2018-02-15T02:26:11.512Z,57.6
2018-02-15T02:26:52.412Z,57.7
2018-02-15T02:27:32.803Z,57.6
2018-02-15T02:28:14.199Z,57.7
2018-02-15T02:28:54.674Z,57.6
2018-02-15T02:29:35.782Z,57.98
2018-02-15T02:30:15.907Z,58.26
2018-02-15T02:30:57.222Z,58.26
2018-02-15T02:31:37.468Z,57.98
2018-02-15T02:32:17.880Z,58.07
2018-02-15T02:32:58.943Z,58.17
2018-02-15T02:33:39.281Z,58.36
2018-02-15T02:34:19.785Z,58.07
2018-02-15T02:35:00.318Z,58.26
2018-02-15T02:35:41.056Z,58.36
2018-02-15T02:36:22.269Z,58.07
2018-02-15T02:37:02.771Z,58.55
2018-02-15T02:37:43.334Z,59.03
2018-02-15T02:38:23.826Z,59.22
2018-02-15T02:39:04.374Z,58.93
2018-02-15T02:39:45.016Z,59.5
2018-02-15T02:40:25.640Z,59.12
2018-02-15T02:41:06.153Z,59.12
2018-02-15T02:41:46.795Z,58.84
2018-02-15T02:42:27.248Z,59.03
2018-02-15T02:43:08.610Z,58.93
2018-02-15T02:43:48.693Z,58.93
2018-02-15T02:44:29.345Z,58.84
2018-02-15T02:45:09.991Z,58.93
2018-02-15T02:45:50.525Z,58.74
2018-02-15T02:46:31.055Z,58.65
2018-02-15T02:47:11.873Z,58.74
2018-02-15T02:47:52.706Z,58.84
2018-02-15T02:48:33.300Z,58.93
2018-02-15T02:49:14.308Z,59.03
2018-02-15T02:49:55.101Z,59.88
2018-02-15T02:50:35.992Z,59.97
2018-02-15T02:51:16.421Z,59.78
2018-02-15T02:51:57.026Z,59.97
2018-02-15T02:52:37.684Z,60.35
2018-02-15T02:53:19.566Z,60.16
2018-02-15T02:53:59.904Z,60.83
2018-02-15T02:54:40.621Z,60.83
2018-02-15T02:55:21.160Z,61.02
2018-02-15T02:56:02.095Z,60.92
2018-02-15T02:56:42.595Z,61.49
2018-02-15T02:57:23.669Z,61.58
2018-02-15T02:58:04.351Z,61.87
2018-02-15T02:58:44.767Z,61.87
2018-02-15T02:59:25.108Z,61.87
2018-02-15T03:00:05.643Z,61.8
2018-02-15T03:00:46.711Z,61.96
2018-02-15T03:01:27.513Z,62.05
2018-02-15T03:02:09.421Z,62.24
2018-02-15T03:02:50.017Z,62.18
2018-02-15T03:03:30.193Z,62.43
2018-02-15T03:04:10.755Z,62.82
2018-02-15T03:04:51.315Z,63.01
2018-02-15T03:05:33.103Z,62.82
2018-02-15T03:06:14.811Z,63.48
2018-02-15T03:06:55.321Z,63.85
2018-02-15T03:10:55.667Z,66.8
2018-02-15T03:11:41.826Z,67.65
2018-02-15T03:12:22.639Z,67.46
2018-02-15T03:13:03.463Z,68.31
2018-02-15T03:13:44.214Z,69.26
2018-02-15T03:14:24.840Z,68.98
2018-02-15T03:15:05.715Z,69.92
2018-02-15T03:15:47.026Z,70.2
2018-02-15T03:16:27.533Z,70.68
2018-02-15T03:17:08.366Z,71.34
2018-02-15T03:17:48.479Z,71.25
2018-02-15T03:18:29.404Z,72.48
2018-02-15T03:19:09.850Z,73.05
2018-02-15T03:19:50.857Z,73.71
2018-02-15T03:20:31.533Z,73.99
2018-02-15T03:21:12.447Z,74.66
2018-02-15T03:21:52.953Z,75.47
2018-02-15T03:22:33.831Z,76.14
2018-02-15T03:23:14.612Z,76.51
2018-02-15T03:23:55.242Z,77.65
2018-02-15T03:24:36.302Z,78.13
2018-02-15T03:25:16.447Z,78.13
2018-02-15T03:25:59.044Z,78.22
2018-02-15T03:26:39.456Z,78.88
2018-02-15T03:27:20.245Z,79.74
2018-02-15T03:28:00.720Z,79.55
2018-02-15T03:28:41.405Z,80.21
2018-02-15T03:29:22.108Z,80.4
2018-02-15T03:30:02.762Z,80.87
2018-02-15T03:30:43.379Z,81.72
2018-02-15T03:31:23.782Z,82.01
2018-02-15T03:32:07.177Z,82.2
2018-02-15T03:32:49.628Z,82.95
2018-02-15T03:33:30.420Z,83.62
2018-02-15T03:34:11.276Z,84.14
2018-02-15T03:34:51.545Z,85.19
2018-02-15T03:35:33.296Z,84.9
2018-02-15T03:36:14.300Z,85.38
2018-02-15T03:36:55.453Z,86.7
2018-02-15T03:37:36.328Z,86.51
2018-02-15T03:38:16.968Z,86.98
2018-02-15T03:38:57.664Z,87.55
2018-02-15T03:39:38.268Z,87.65
2018-02-15T03:40:19.281Z,88.59
2018-02-15T03:41:01.007Z,88.87
2018-02-15T03:41:44.397Z,89.06
2018-02-15T03:42:25.772Z,89.54
2018-02-15T03:43:06.640Z,90.01
2018-02-15T03:43:49.309Z,90.39
2018-02-15T03:44:30.496Z,90.39
2018-02-15T03:45:12.290Z,90.77
2018-02-15T03:45:53.256Z,90.58
2018-02-15T03:46:35.318Z,91.53
2018-02-15T03:47:15.591Z,91.05
2018-02-15T03:47:56.741Z,91.62
2018-02-15T03:48:38.762Z,91.91
2018-02-15T03:49:19.811Z,92
2018-02-15T03:50:00.505Z,92.38
2018-02-15T03:50:41.862Z,92.47
2018-02-15T03:51:23.874Z,92.57
2018-02-15T03:52:05.313Z,93.42
2018-02-15T03:52:45.941Z,93.7
2018-02-15T03:53:26.910Z,93.66
2018-02-15T03:54:16.387Z,94.23
2018-02-15T03:55:02.619Z,94.23
2018-02-15T03:55:42.162Z,94.42
2018-02-15T03:57:43.166Z,95.07
2018-02-15T03:58:24.925Z,94.51
2018-02-15T03:59:05.569Z,95.36
2018-02-15T03:59:45.795Z,95.45
2018-02-15T04:00:26.219Z,95.74
2018-02-15T04:01:06.800Z,95.36
2018-02-15T04:01:47.317Z,95.07
2018-02-15T04:02:28.056Z,95.03
2018-02-15T04:03:10.226Z,95.03
2018-02-15T04:03:50.673Z,94.56
2018-02-15T04:04:31.150Z,94.65
2018-02-15T04:05:11.648Z,94.18
2018-02-15T04:47:38.726Z,99.9
2018-02-15T04:48:19.869Z,99.99
2018-02-15T04:49:00.478Z,99.99
2018-02-15T04:49:40.868Z,99.8
2018-02-15T04:50:21.426Z,99.99
2018-02-15T04:52:41.552Z,99.99
2018-02-15T04:53:24.092Z,99.99
2018-02-15T04:54:05.060Z,99.99
2018-02-15T04:54:46.214Z,99.8
2018-02-15T04:56:33.628Z,99.99
2018-02-15T04:57:14.940Z,99.9
2018-02-15T04:57:55.809Z,99.99
2018-02-15T04:58:36.208Z,99.99
2018-02-15T04:59:18.207Z,99.9
2018-02-15T04:59:58.497Z,99.62
2018-02-15T05:00:39.363Z,99.71
2018-02-15T05:01:20.279Z,99.71
2018-02-15T05:02:00.935Z,99.52
2018-02-15T05:02:41.423Z,99.9
2018-02-15T05:03:22.102Z,99.62
2018-02-15T05:04:02.762Z,99.9
2018-02-15T05:04:43.381Z,99.99
2018-02-15T05:05:23.889Z,99.15
2018-02-15T05:06:04.270Z,98.96
2018-02-15T05:06:44.701Z,99.24
2018-02-15T05:07:25.364Z,98.77
2018-02-15T05:08:06.269Z,98.48
2018-02-15T05:08:46.773Z,98.2
2018-02-15T05:09:27.228Z,99.52
2018-02-15T05:10:08.133Z,99.24
2018-02-15T05:12:29.305Z,98.96
2018-02-15T05:13:11.594Z,98.39
2018-02-15T05:13:52.142Z,98.77
2018-02-15T05:14:32.538Z,98.39
2018-02-15T05:15:13.133Z,98.77
2018-02-15T05:15:53.578Z,98.77
2018-02-15T05:16:34.740Z,98.77
2018-02-15T05:17:15.222Z,98.86
2018-02-15T05:17:56.122Z,98.67
2018-02-15T05:18:36.580Z,98.39
2018-02-15T05:19:17.749Z,98.48
2018-02-15T05:19:58.162Z,98.29
2018-02-15T05:20:39.252Z,98.39
2018-02-15T05:21:19.532Z,97.53
2018-02-15T05:22:00.477Z,97.72
2018-02-15T05:22:40.871Z,98.29
2018-02-15T05:23:21.315Z,97.82
2018-02-15T05:24:01.814Z,98.1
2018-02-15T05:24:43.306Z,98.1
2018-02-15T05:25:24.221Z,98.58
2018-02-15T05:26:04.762Z,97.77
2018-02-15T05:26:46.439Z,98.1
2018-02-15T05:27:27.342Z,98.2
2018-02-15T05:28:08.214Z,97.63
2018-02-15T05:28:48.983Z,97.34
2018-02-15T05:29:29.609Z,97.16
2018-02-15T05:30:09.991Z,97.44
2018-02-15T05:30:50.631Z,98.01
2018-02-15T05:31:30.948Z,97.72
2018-02-15T05:32:11.711Z,98.1
2018-02-15T05:32:52.738Z,97.82
2018-02-15T05:33:33.793Z,98.29
2018-02-15T05:34:14.372Z,98.2
2018-02-15T05:34:55.500Z,97.25
2018-02-15T05:35:35.894Z,97.53
2018-02-15T05:36:16.835Z,97.25
2018-02-15T05:36:57.268Z,97.63
2018-02-15T05:37:38.254Z,96.88
2018-02-15T05:38:18.832Z,96.88
2018-02-15T05:38:59.300Z,97.34
2018-02-15T05:39:40.231Z,97.44
2018-02-15T05:40:20.634Z,97.25
2018-02-15T05:41:01.625Z,97.53
2018-02-15T05:41:41.990Z,97.44
2018-02-15T05:42:23.003Z,98.1
2018-02-15T05:43:03.320Z,97.44
2018-02-15T05:43:43.860Z,97.53
2018-02-15T05:44:27.167Z,97.25
2018-02-15T05:45:07.753Z,97.44
2018-02-15T05:45:48.198Z,97.63
2018-02-15T05:46:28.844Z,97.82
2018-02-15T05:47:09.351Z,98.2
2018-02-15T05:47:50.157Z,97.44
2018-02-15T05:48:30.640Z,97.44
2018-02-15T05:49:11.172Z,97.44
2018-02-15T05:49:51.619Z,98.2
2018-02-15T05:50:32.555Z,98.29
2018-02-15T05:51:15.215Z,97.72
2018-02-15T05:51:55.821Z,97.82
2018-02-15T05:55:33.821Z,97.72
2018-02-15T05:56:13.766Z,97.82
2018-02-15T05:56:54.324Z,98.01
2018-02-15T05:57:34.750Z,97.34
2018-02-15T05:58:15.659Z,97.63
2018-02-15T05:58:56.121Z,98.2
2018-02-15T05:59:37.366Z,97.53
2018-02-15T06:01:35.780Z,97.53
2018-02-15T06:02:16.918Z,97.34
2018-02-15T06:02:57.922Z,97.44
2018-02-15T06:03:38.488Z,97.91
2018-02-15T06:04:19.051Z,98.01
2018-02-15T06:04:59.780Z,97.72
2018-02-15T06:05:41.242Z,97.44
2018-02-15T06:06:21.682Z,97.25
2018-02-15T06:07:02.309Z,97.34
2018-02-15T06:07:43.700Z,97.44
2018-02-15T06:08:25.143Z,97.53
2018-02-15T06:09:06.508Z,97.91
2018-02-15T06:09:47.131Z,98.01
2018-02-15T06:10:28.478Z,98.1
2018-02-15T06:11:09.317Z,98.1
2018-02-15T06:11:50.488Z,97.25
2018-02-15T06:12:31.405Z,97.44
2018-02-15T06:13:11.494Z,97.44
2018-02-15T06:13:52.302Z,97.44
2018-02-15T06:14:33.042Z,97.91
2018-02-15T06:15:13.542Z,98.01
2018-02-15T06:15:54.071Z,97.25
2018-02-15T06:16:34.479Z,97.34
2018-02-15T06:17:14.903Z,97.34
2018-02-15T06:17:55.853Z,98.48
2018-02-15T06:20:14.245Z,97.34
2018-02-15T06:20:56.864Z,97.72
2018-02-15T06:21:37.459Z,98.1
2018-02-15T06:22:18.279Z,98.01
2018-02-15T06:22:58.857Z,97.72
2018-02-15T06:23:39.341Z,98.2
2018-02-15T06:24:19.711Z,97.72
2018-02-15T06:25:00.453Z,98.01
2018-02-15T06:25:41.830Z,97.91
2018-02-15T06:26:22.789Z,98.06
2018-02-15T06:27:03.219Z,97.34
2018-02-15T06:27:43.660Z,97.49
2018-02-15T06:28:24.131Z,97.25
2018-02-15T06:29:04.546Z,96.97
2018-02-15T06:29:45.061Z,96.97
2018-02-15T06:30:25.565Z,97.16
2018-02-15T06:31:05.919Z,97.63
2018-02-15T06:31:47.057Z,97.63
2018-02-15T06:32:27.845Z,97.63
2018-02-15T06:33:08.283Z,96.97
2018-02-15T06:33:48.823Z,97.16
2018-02-15T06:34:29.312Z,96.97
2018-02-15T06:35:09.852Z,97.16
2018-02-15T06:35:50.188Z,96.97
2018-02-15T06:36:30.811Z,97.16
2018-02-15T06:37:11.851Z,97.16
2018-02-15T06:37:52.353Z,97.63
2018-02-15T06:38:32.957Z,97.44
2018-02-15T06:39:13.467Z,97.44
2018-02-15T06:39:55.278Z,96.88
2018-02-15T06:40:36.488Z,97.53
2018-02-15T06:41:16.620Z,97.44
2018-02-15T06:41:57.063Z,97.53
2018-02-15T06:42:38.343Z,97.72
2018-02-15T06:43:18.983Z,97.53
2018-02-15T06:43:59.398Z,97.34
2018-02-15T06:44:40.413Z,98.01
2018-02-15T06:45:22.097Z,97.44
2018-02-15T06:46:02.295Z,97.44
2018-02-15T06:46:43.244Z,97.82
2018-02-15T06:47:23.907Z,97.63
2018-02-15T06:48:04.318Z,98.58
2018-02-15T06:48:44.748Z,97.72
2018-02-15T06:49:25.699Z,98.2
2018-02-15T06:50:06.957Z,97.91
2018-02-15T06:50:47.396Z,97.72
2018-02-15T06:51:27.905Z,98.48
2018-02-15T06:52:08.286Z,98.1
2018-02-15T06:52:48.828Z,98.39
2018-02-15T06:53:29.830Z,98.2
2018-02-15T06:54:10.238Z,98.77
2018-02-15T06:54:50.659Z,98.48
2018-02-15T06:55:31.127Z,98.39
2018-02-15T06:56:11.552Z,98.29
2018-02-15T06:56:52.179Z,98.86
2018-02-15T06:57:33.241Z,98.86
2018-02-15T06:58:14.053Z,99.05
2018-02-15T06:58:54.243Z,98.48
2018-02-15T06:59:34.840Z,98.29
2018-02-15T07:00:15.473Z,98.29
2018-02-15T07:00:55.955Z,98.2
2018-02-15T07:01:37.033Z,98.39
2018-02-15T07:02:17.493Z,98.48
2018-02-15T07:02:57.996Z,98.1
2018-02-15T07:03:38.432Z,98.2
2018-02-15T07:05:36.876Z,98.2
2018-02-15T07:06:20.762Z,98.39
2018-02-15T07:07:01.531Z,98.86
2018-02-15T07:07:41.705Z,98.86
2018-02-15T07:08:22.375Z,98.67
2018-02-15T07:09:02.705Z,98.86
2018-02-15T07:09:43.578Z,99.05
2018-02-15T07:10:24.134Z,99.05
2018-02-15T07:11:04.374Z,99.43
2018-02-15T07:11:44.983Z,99.05
2018-02-15T07:12:26.600Z,98.91
2018-02-15T07:13:06.963Z,98.72
2018-02-15T07:13:47.430Z,98.67
2018-02-15T07:14:27.976Z,98.39
2018-02-15T07:15:08.800Z,98.44
2018-02-15T07:15:49.263Z,98.48
2018-02-15T07:16:29.762Z,98.2
2018-02-15T07:17:10.548Z,98.58
2018-02-15T07:17:51.061Z,98.63
2018-02-15T07:18:31.736Z,98.72
2018-02-15T07:19:12.081Z,98.63
2018-02-15T07:19:53.660Z,98.63
2018-02-15T07:20:34.331Z,98.34
2018-02-15T07:21:14.910Z,98.25
2018-02-15T07:21:55.227Z,97.77
2018-02-15T07:22:36.602Z,97.77
2018-02-15T07:23:17.446Z,98.53
2018-02-15T07:23:58.039Z,97.87
2018-02-15T07:24:38.563Z,97.77
2018-02-15T07:25:19.113Z,97.68
2018-02-15T07:25:59.700Z,98.06
2018-02-15T07:26:40.307Z,97.77
2018-02-15T07:27:20.944Z,97.96
2018-02-15T07:28:01.941Z,98.34
2018-02-15T07:28:42.338Z,98.44
2018-02-15T07:29:22.976Z,97.77
2018-02-15T07:30:03.830Z,97.49
2018-02-15T07:30:44.586Z,97.02
2018-02-15T07:31:25.466Z,97.02
2018-02-15T07:32:07.072Z,96.16
2018-02-15T07:32:47.654Z,96.83
2018-02-15T07:33:28.293Z,96.64
2018-02-15T07:34:09.135Z,96.64
2018-02-15T07:34:50.384Z,96.45
2018-02-15T07:35:32.492Z,96.64
2018-02-15T07:36:12.849Z,96.83
2018-02-15T07:36:53.367Z,96.07
2018-02-15T07:37:33.764Z,95.97
2018-02-15T07:38:15.291Z,96.26
2018-02-15T07:38:56.144Z,96.16
2018-02-15T07:39:37.829Z,96.35
2018-02-15T07:40:18.577Z,96.07
2018-02-15T07:40:59.323Z,96.64
2018-02-15T07:41:40.429Z,96.45
2018-02-15T07:42:21.568Z,96.26
2018-02-15T07:43:02.357Z,96.16
2018-02-15T07:43:44.216Z,97.02
2018-02-15T07:44:25.366Z,96.97
2018-02-15T07:45:05.872Z,96.59
2018-02-15T07:45:46.598Z,95.4
2018-02-15T07:46:27.025Z,95.69
2018-02-15T07:47:07.575Z,95.69
2018-02-15T07:47:47.939Z,96.26
2018-02-15T07:48:28.758Z,95.64
2018-02-15T07:49:09.368Z,95.4
2018-02-15T07:49:49.902Z,95.4
2018-02-15T07:50:31.440Z,95.83
2018-02-15T07:51:11.859Z,95.5
2018-02-15T07:51:52.164Z,95.12
2018-02-15T07:52:32.692Z,94.89
2018-02-15T07:53:13.263Z,95.59
2018-02-15T07:53:53.732Z,95.36
2018-02-15T07:54:35.631Z,95.69
2018-02-15T07:55:16.334Z,95.97
2018-02-15T07:55:56.750Z,95.4
2018-02-15T07:56:37.553Z,95.78
2018-02-15T07:57:18.032Z,95.97
2018-02-15T07:59:12.933Z,95.36
2018-02-15T07:59:55.729Z,95.03
2018-02-15T08:00:36.254Z,94.98
2018-02-15T08:01:17.146Z,95.17
2018-02-15T08:01:57.987Z,94.98
2018-02-15T08:02:39.077Z,94.98
2018-02-15T08:03:22.977Z,95.07
2018-02-15T08:04:05.394Z,94.7
2018-02-15T08:04:46.137Z,95.07
2018-02-15T08:05:26.732Z,94.98
2018-02-15T08:06:07.184Z,94.51
2018-02-15T08:06:48.459Z,94.23
2018-02-15T08:07:30.671Z,94.42
2018-02-15T08:08:11.149Z,94.42
2018-02-15T08:08:51.996Z,94.6
2018-02-15T08:09:32.379Z,94.51
2018-02-15T08:10:14.086Z,94.23
2018-02-15T08:10:55.044Z,94.42
2018-02-15T08:11:35.590Z,94.32
2018-02-15T08:12:18.589Z,94.42
2018-02-15T08:13:00.953Z,94.18
2018-02-15T08:15:01.571Z,94.65
2018-02-15T08:15:42.105Z,95.07
2018-02-15T08:16:22.593Z,95.31
2018-02-15T08:17:03.133Z,94.93
2018-02-15T08:19:05.736Z,95.26
2018-02-15T08:19:47.905Z,95.26
2018-02-15T08:20:28.490Z,95.93
2018-02-15T08:21:12.182Z,95.64
2018-02-15T08:21:52.599Z,95.36
2018-02-15T08:22:33.459Z,94.79
2018-02-15T08:23:14.465Z,95.17
2018-02-15T08:23:55.431Z,94.51
2018-02-15T08:24:36.304Z,94.42
2018-02-15T08:25:18.233Z,94.32
2018-02-15T08:25:58.692Z,95.07
2018-02-15T08:26:39.561Z,94.89
2018-02-15T08:27:22.331Z,94.6
2018-02-15T08:28:03.353Z,94.42
2018-02-15T08:28:44.456Z,94.98
2018-02-15T08:29:24.988Z,94.89
2018-02-15T08:30:05.418Z,95.17
2018-02-15T08:30:46.124Z,95.26
2018-02-15T08:31:27.712Z,94.98
2018-02-15T08:32:08.844Z,95.74
2018-02-15T08:32:51.622Z,95.64
2018-02-15T08:33:31.151Z,95.93
2018-02-15T08:34:12.037Z,95.74
2018-02-15T08:34:52.505Z,95.45
2018-02-15T08:35:33.991Z,95.55
2018-02-15T08:36:14.674Z,95.64
2018-02-15T08:36:57.598Z,95.83
2018-02-15T08:38:50.408Z,95.74
2018-02-15T08:39:33.386Z,95.64
2018-02-15T08:40:14.396Z,95.83
2018-02-15T08:40:56.052Z,95.74
2018-02-15T08:41:37.593Z,95.64
2018-02-15T08:42:19.718Z,95.74
2018-02-15T08:43:01.560Z,95.74
2018-02-15T08:43:44.654Z,96.12
2018-02-15T08:44:25.445Z,96.69
2018-02-15T08:45:06.214Z,96.5
2018-02-15T08:45:47.243Z,96.5
2018-02-15T08:46:27.667Z,96.21
2018-02-15T08:47:08.317Z,96.21
2018-02-15T08:47:49.193Z,96.31
2018-02-15T08:48:34.062Z,96.59
2018-02-15T08:49:13.876Z,96.5
2018-02-15T08:49:56.778Z,95.93
2018-02-15T08:50:37.645Z,96.4
2018-02-15T08:51:17.998Z,96.5
2018-02-15T08:51:59.042Z,96.69
2018-02-15T08:52:39.683Z,96.59
2018-02-15T08:53:22.147Z,96.4
2018-02-15T08:54:02.521Z,96.5
2018-02-15T08:54:43.317Z,96.02
2018-02-15T08:55:24.532Z,96.59
2018-02-15T08:56:05.568Z,96.4
2018-02-15T08:56:46.558Z,96.88
2018-02-15T08:57:27.447Z,96.88
2018-02-15T08:58:08.068Z,97.06
2018-02-15T08:58:50.132Z,96.97
2018-02-15T08:59:31.675Z,97.35
2018-02-15T10:44:15.011Z,99.86
2018-02-15T10:45:06.595Z,99.77
2018-02-15T10:45:53.233Z,99.86
2018-02-15T10:51:55.806Z,99.2
2018-02-15T10:52:42.655Z,99.01
2018-02-15T10:53:23.106Z,98.82
2018-02-15T10:54:03.754Z,99.2
2018-02-15T10:54:44.178Z,99.06
2018-02-15T10:55:24.521Z,98.68
2018-02-15T10:56:04.939Z,98.58
2018-02-15T10:56:47.203Z,98.3
2018-02-15T10:57:28.729Z,98.02
2018-02-15T10:58:12.278Z,97.73
2018-02-15T10:58:55.899Z,98.02
2018-02-15T10:59:36.620Z,97.45
2018-02-15T11:00:18.125Z,97.64
2018-02-15T11:01:00.687Z,97.45
2018-02-15T11:01:40.500Z,97.73
2018-02-15T11:02:21.723Z,97.64
2018-02-15T11:03:02.704Z,97.64
2018-02-15T11:03:47.269Z,97.45
2018-02-15T11:04:28.809Z,97.26
2018-02-15T11:05:09.354Z,96.69
2018-02-15T11:05:52.437Z,96.59
2018-02-15T11:06:33.743Z,96.5
2018-02-15T11:07:14.205Z,96.12
2018-02-15T11:07:54.689Z,96.78
2018-02-15T11:08:35.520Z,96.31
2018-02-15T11:09:16.588Z,97.07
2018-02-15T11:09:57.973Z,97.16
2018-02-15T11:10:43.202Z,96.12
2018-02-15T11:11:29.806Z,96.31
2018-02-15T11:12:07.175Z,96.5
2018-02-15T11:12:48.124Z,95.84
2018-02-15T11:13:28.864Z,95.74
2018-02-15T11:14:12.269Z,95.65
2018-02-15T11:14:56.463Z,95.65
2018-02-15T11:15:37.025Z,95.55
2018-02-15T11:16:18.549Z,95.74
2018-02-15T11:16:59.124Z,95.45
2018-02-15T11:17:40.787Z,95.93
2018-02-15T11:18:21.128Z,95.93
2018-02-15T11:19:01.443Z,95.26
2018-02-15T11:19:44.731Z,95.26
2018-02-15T11:20:24.724Z,95.41
2018-02-15T11:21:05.272Z,94.98
2018-02-15T11:21:46.522Z,95.22
2018-02-15T11:22:27.134Z,94.84
2018-02-15T11:23:07.830Z,95.07
2018-02-15T11:23:48.392Z,94.93
2018-02-15T11:25:48.030Z,94.65
2018-02-15T11:26:28.580Z,94.74
2018-02-15T11:27:09.026Z,94.08
2018-02-15T11:27:49.708Z,94.08
2018-02-15T11:28:30.670Z,94.08
2018-02-15T11:29:12.111Z,94.08
2018-02-15T11:29:52.230Z,94.27
2018-02-15T11:30:32.822Z,93.99
2018-02-15T11:31:13.313Z,93.99
2018-02-15T11:31:54.282Z,93.8
2018-02-15T11:32:35.430Z,93.89
2018-02-15T11:33:15.745Z,93.89
2018-02-15T11:33:56.154Z,93.7
2018-02-15T11:34:37.790Z,93.7
2018-02-15T11:35:18.247Z,93.32
2018-02-15T11:35:59.576Z,93.41
2018-02-15T11:36:39.291Z,93.23
2018-02-15T11:37:20.862Z,93.04
2018-02-15T11:38:02.215Z,93.13
2018-02-15T11:38:42.824Z,93.23
2018-02-15T11:39:23.746Z,92.9
2018-02-15T11:40:05.198Z,93.04
2018-02-15T11:40:46.731Z,91.9
2018-02-15T11:41:28.080Z,92.76
2018-02-15T11:42:09.022Z,92.9
2018-02-15T11:42:50.061Z,92.23
2018-02-15T11:43:31.178Z,92.33
2018-02-15T11:44:11.814Z,91.75
2018-02-15T11:44:55.073Z,91.19
2018-02-15T11:45:36.158Z,91
2018-02-15T11:46:16.969Z,90.71
2018-02-15T11:46:58.223Z,90.9
2018-02-15T11:47:41.554Z,90.71
2018-02-15T11:49:42.166Z,90.62
2018-02-15T11:52:20.280Z,91.94
2018-02-15T11:53:01.394Z,92.23
2018-02-15T11:53:43.669Z,91.66
2018-02-15T11:54:24.669Z,92.04
2018-02-15T11:55:05.088Z,92.42
2018-02-15T11:55:45.511Z,92.42
2018-02-15T11:56:41.970Z,92.71
2018-02-15T12:00:56.717Z,91.38
2018-02-15T12:01:37.710Z,91.85
2018-02-15T12:02:18.169Z,91.75